createdAt,value
2023-05-08T00:00:53.000Z,7.16
2023-05-08T00:01:53.000Z,7.17
2023-05-08T00:02:53.000Z,7.17
2023-05-08T00:03:53.000Z,7.13
2023-05-08T00:04:53.000Z,7.16
2023-05-08T00:05:53.000Z,7.09
2023-05-08T00:06:53.000Z,7.16
2023-05-08T00:07:53.000Z,7.15
2023-05-08T00:08:53.000Z,7.12
2023-05-08T00:09:53.000Z,7.09
2023-05-08T00:10:53.000Z,7.09
2023-05-08T00:11:53.000Z,7.12
2023-05-08T00:12:53.000Z,7.08
2023-05-08T00:13:53.000Z,7.08
2023-05-08T00:14:53.000Z,7.07
2023-05-08T00:15:53.000Z,7.07
2023-05-08T00:16:53.000Z,7.04
2023-05-08T00:17:53.000Z,7.05
2023-05-08T00:18:53.000Z,7.02
2023-05-08T00:19:54.000Z,7.05
2023-05-08T00:20:54.000Z,7.02
2023-05-08T00:21:54.000Z,7.02
2023-05-08T00:22:54.000Z,7.02
2023-05-08T00:23:54.000Z,7.04
2023-05-08T00:24:54.000Z,7.02
2023-05-08T00:25:54.000Z,7.08
2023-05-08T00:26:54.000Z,7.01
2023-05-08T00:27:54.000Z,6.99
2023-05-08T00:28:54.000Z,6.98
2023-05-08T00:29:54.000Z,7.01
2023-05-08T00:30:54.000Z,7.01
2023-05-08T00:31:54.000Z,6.97
2023-05-08T00:32:54.000Z,6.95
2023-05-08T00:33:54.000Z,6.95
2023-05-08T00:34:54.000Z,6.87
2023-05-08T00:35:54.000Z,6.91
2023-05-08T00:36:54.000Z,6.89
2023-05-08T00:37:54.000Z,6.91
2023-05-08T00:38:54.000Z,6.89
2023-05-08T00:39:54.000Z,6.89
2023-05-08T00:40:54.000Z,6.87
2023-05-08T00:41:54.000Z,6.86
2023-05-08T00:42:54.000Z,6.84
2023-05-08T00:43:54.000Z,6.87
2023-05-08T00:44:54.000Z,6.84
2023-05-08T00:45:54.000Z,6.86
2023-05-08T00:46:54.000Z,6.87
2023-05-08T00:47:54.000Z,6.83
2023-05-08T00:48:54.000Z,6.84
2023-05-08T00:49:54.000Z,6.79
2023-05-08T00:50:54.000Z,6.81
2023-05-08T00:51:54.000Z,6.80
2023-05-08T00:52:54.000Z,6.80
2023-05-08T00:53:54.000Z,6.79
2023-05-08T00:54:54.000Z,6.77
2023-05-08T00:55:54.000Z,6.79
2023-05-08T00:56:54.000Z,6.77
2023-05-08T00:57:54.000Z,6.79
2023-05-08T00:58:54.000Z,6.73
2023-05-08T00:59:54.000Z,6.79
2023-05-08T01:00:54.000Z,6.76
2023-05-08T01:01:54.000Z,6.76
2023-05-08T01:02:54.000Z,6.76
2023-05-08T01:03:54.000Z,6.72
2023-05-08T01:04:54.000Z,6.71
2023-05-08T01:05:54.000Z,6.68
2023-05-08T01:06:54.000Z,6.69
2023-05-08T01:07:54.000Z,6.69
2023-05-08T01:08:54.000Z,6.65
2023-05-08T01:09:54.000Z,6.65
2023-05-08T01:10:54.000Z,6.68
2023-05-08T01:11:54.000Z,6.68
2023-05-08T01:12:54.000Z,6.66
2023-05-08T01:13:54.000Z,6.62
2023-05-08T01:14:54.000Z,6.62
2023-05-08T01:15:54.000Z,6.62
2023-05-08T01:16:54.000Z,6.59
2023-05-08T01:17:54.000Z,6.59
2023-05-08T01:18:54.000Z,6.54
2023-05-08T01:19:54.000Z,6.61
2023-05-08T01:20:54.000Z,6.53
2023-05-08T01:21:54.000Z,6.54
2023-05-08T01:22:54.000Z,6.50
2023-05-08T01:23:54.000Z,6.48
2023-05-08T01:24:54.000Z,6.44
2023-05-08T01:25:55.000Z,6.40
2023-05-08T01:26:55.000Z,6.40
2023-05-08T01:27:55.000Z,6.36
2023-05-08T01:28:55.000Z,6.36
2023-05-08T01:29:55.000Z,6.28
2023-05-08T01:30:55.000Z,6.30
2023-05-08T01:31:55.000Z,6.29
2023-05-08T01:32:55.000Z,6.22
2023-05-08T01:33:55.000Z,6.19
2023-05-08T01:34:55.000Z,6.25
2023-05-08T01:35:55.000Z,6.19
2023-05-08T01:36:55.000Z,6.19
2023-05-08T01:37:55.000Z,6.16
2023-05-08T01:38:55.000Z,6.16
2023-05-08T01:39:55.000Z,6.19
2023-05-08T01:40:55.000Z,6.16
2023-05-08T01:41:55.000Z,6.16
2023-05-08T01:42:55.000Z,6.13
2023-05-08T01:43:55.000Z,6.14
2023-05-08T01:44:55.000Z,6.11
2023-05-08T01:45:55.000Z,6.11
2023-05-08T01:46:55.000Z,6.11
2023-05-08T01:47:55.000Z,6.09
2023-05-08T01:48:55.000Z,6.07
2023-05-08T01:49:55.000Z,6.04
2023-05-08T01:50:55.000Z,6.06
2023-05-08T01:51:55.000Z,6.06
2023-05-08T01:52:55.000Z,6.06
2023-05-08T01:53:55.000Z,6.01
2023-05-08T01:54:55.000Z,6.01
2023-05-08T01:55:55.000Z,6.01
2023-05-08T01:56:55.000Z,6.00
2023-05-08T01:57:55.000Z,6.01
2023-05-08T01:58:55.000Z,5.96
2023-05-08T01:59:55.000Z,5.95
2023-05-08T02:00:55.000Z,5.93
2023-05-08T02:01:55.000Z,5.96
2023-05-08T02:02:55.000Z,5.95
2023-05-08T02:03:55.000Z,5.92
2023-05-08T02:04:55.000Z,5.89
2023-05-08T02:05:55.000Z,5.83
2023-05-08T02:06:55.000Z,5.85
2023-05-08T02:07:55.000Z,5.85
2023-05-08T02:08:55.000Z,5.82
2023-05-08T02:09:55.000Z,5.88
2023-05-08T02:10:55.000Z,5.82
2023-05-08T02:11:55.000Z,5.82
2023-05-08T02:12:55.000Z,5.83
2023-05-08T02:13:55.000Z,5.77
2023-05-08T02:14:55.000Z,5.77
2023-05-08T02:15:55.000Z,5.74
2023-05-08T02:16:55.000Z,5.74
2023-05-08T02:17:55.000Z,5.74
2023-05-08T02:18:56.000Z,5.73
2023-05-08T02:19:56.000Z,5.73
2023-05-08T02:20:56.000Z,5.71
2023-05-08T02:21:56.000Z,5.68
2023-05-08T02:22:56.000Z,5.66
2023-05-08T02:23:56.000Z,5.70
2023-05-08T02:24:56.000Z,5.68
2023-05-08T02:25:56.000Z,5.67
2023-05-08T02:26:56.000Z,5.63
2023-05-08T02:27:56.000Z,5.60
2023-05-08T02:28:56.000Z,5.60
2023-05-08T02:29:56.000Z,5.63
2023-05-08T02:30:56.000Z,5.60
2023-05-08T02:31:56.000Z,5.57
2023-05-08T02:32:56.000Z,5.57
2023-05-08T02:33:56.000Z,5.59
2023-05-08T02:34:56.000Z,5.57
2023-05-08T02:35:56.000Z,5.56
2023-05-08T02:36:56.000Z,5.53
2023-05-08T02:37:56.000Z,5.55
2023-05-08T02:38:56.000Z,5.52
2023-05-08T02:39:56.000Z,5.52
2023-05-08T02:40:56.000Z,5.50
2023-05-08T02:41:56.000Z,5.49
2023-05-08T02:42:56.000Z,5.48
2023-05-08T02:43:56.000Z,5.48
2023-05-08T02:44:56.000Z,5.45
2023-05-08T02:45:56.000Z,5.48
2023-05-08T02:46:56.000Z,5.43
2023-05-08T02:47:56.000Z,5.48
2023-05-08T02:48:56.000Z,5.45
2023-05-08T02:49:56.000Z,5.38
2023-05-08T02:50:56.000Z,5.40
2023-05-08T02:51:56.000Z,5.37
2023-05-08T02:52:56.000Z,5.32
2023-05-08T02:53:56.000Z,5.38
2023-05-08T02:54:56.000Z,5.37
2023-05-08T02:55:56.000Z,5.31
2023-05-08T02:56:56.000Z,5.28
2023-05-08T02:57:56.000Z,5.34
2023-05-08T02:58:56.000Z,5.30
2023-05-08T02:59:56.000Z,5.32
2023-05-08T03:00:56.000Z,5.27
2023-05-08T03:01:56.000Z,5.25
2023-05-08T03:02:56.000Z,5.31
2023-05-08T03:03:57.000Z,5.22
2023-05-08T03:04:57.000Z,5.27
2023-05-08T03:05:57.000Z,5.22
2023-05-08T03:06:57.000Z,5.22
2023-05-08T03:07:57.000Z,5.20
2023-05-08T03:08:57.000Z,5.22
2023-05-08T03:09:57.000Z,5.19
2023-05-08T03:10:57.000Z,5.23
2023-05-08T03:11:57.000Z,5.20
2023-05-08T03:12:57.000Z,5.17
2023-05-08T03:13:57.000Z,5.13
2023-05-08T03:14:57.000Z,5.13
2023-05-08T03:15:57.000Z,5.13
2023-05-08T03:16:57.000Z,5.14
2023-05-08T03:17:57.000Z,5.12
2023-05-08T03:18:57.000Z,5.14
2023-05-08T03:19:57.000Z,5.12
2023-05-08T03:20:57.000Z,5.14
2023-05-08T03:21:57.000Z,5.10
2023-05-08T03:22:57.000Z,5.04
2023-05-08T03:23:57.000Z,5.07
2023-05-08T03:24:57.000Z,5.05
2023-05-08T03:25:57.000Z,5.01
2023-05-08T03:26:57.000Z,4.99
2023-05-08T03:27:57.000Z,5.02
2023-05-08T03:28:57.000Z,5.01
2023-05-08T03:29:57.000Z,5.02
2023-05-08T03:30:57.000Z,5.01
2023-05-08T03:31:57.000Z,4.98
2023-05-08T03:32:57.000Z,4.99
2023-05-08T03:33:57.000Z,4.94
2023-05-08T03:34:57.000Z,4.94
2023-05-08T03:35:57.000Z,4.92
2023-05-08T03:36:57.000Z,4.91
2023-05-08T03:37:58.000Z,4.91
2023-05-08T03:38:58.000Z,4.92
2023-05-08T03:39:58.000Z,4.89
2023-05-08T03:40:58.000Z,4.92
2023-05-08T03:41:58.000Z,4.89
2023-05-08T03:42:58.000Z,4.88
2023-05-08T03:43:58.000Z,4.91
2023-05-08T03:44:58.000Z,4.89
2023-05-08T03:45:58.000Z,4.88
2023-05-08T03:46:58.000Z,4.86
2023-05-08T03:47:58.000Z,4.86
2023-05-08T03:48:58.000Z,4.89
2023-05-08T03:49:58.000Z,4.86
2023-05-08T03:50:58.000Z,4.86
2023-05-08T03:51:58.000Z,4.86
2023-05-08T03:52:58.000Z,4.83
2023-05-08T03:53:58.000Z,4.84
2023-05-08T03:54:58.000Z,4.83
2023-05-08T03:55:58.000Z,4.79
2023-05-08T03:56:58.000Z,4.84
2023-05-08T03:57:58.000Z,4.86
2023-05-08T03:58:58.000Z,4.84
2023-05-08T03:59:58.000Z,4.88
2023-05-08T04:00:58.000Z,4.88
2023-05-08T04:01:58.000Z,4.92
2023-05-08T04:02:58.000Z,4.92
2023-05-08T04:03:58.000Z,4.95
2023-05-08T04:04:58.000Z,4.92
2023-05-08T04:05:59.000Z,4.95
2023-05-08T04:06:59.000Z,4.96
2023-05-08T04:07:59.000Z,4.99
2023-05-08T04:08:59.000Z,4.96
2023-05-08T04:09:59.000Z,4.99
2023-05-08T04:10:59.000Z,5.04
2023-05-08T04:11:59.000Z,5.01
2023-05-08T04:12:59.000Z,5.04
2023-05-08T04:13:59.000Z,5.09
2023-05-08T04:14:59.000Z,5.10
2023-05-08T04:15:59.000Z,5.10
2023-05-08T04:16:59.000Z,5.12
2023-05-08T04:17:59.000Z,5.14
2023-05-08T04:18:59.000Z,5.19
2023-05-08T04:19:59.000Z,5.16
2023-05-08T04:20:59.000Z,5.20
2023-05-08T04:21:59.000Z,5.23
2023-05-08T04:22:59.000Z,5.27
2023-05-08T04:23:59.000Z,5.31
2023-05-08T04:24:59.000Z,5.31
2023-05-08T04:25:59.000Z,5.40
2023-05-08T04:26:59.000Z,5.35
2023-05-08T04:27:59.000Z,5.40
2023-05-08T04:28:59.000Z,5.43
2023-05-08T04:29:59.000Z,5.46
2023-05-08T04:30:59.000Z,5.45
2023-05-08T04:31:59.000Z,5.49
2023-05-08T04:33:00.000Z,5.52
2023-05-08T04:34:00.000Z,5.55
2023-05-08T04:35:00.000Z,5.57
2023-05-08T04:36:00.000Z,5.64
2023-05-08T04:37:00.000Z,5.63
2023-05-08T04:38:00.000Z,5.64
2023-05-08T04:39:00.000Z,5.70
2023-05-08T04:40:00.000Z,5.70
2023-05-08T04:41:00.000Z,5.73
2023-05-08T04:42:00.000Z,5.74
2023-05-08T04:43:00.000Z,5.75
2023-05-08T04:44:00.000Z,5.77
2023-05-08T04:45:00.000Z,5.81
2023-05-08T04:46:00.000Z,5.89
2023-05-08T04:47:00.000Z,5.88
2023-05-08T04:48:00.000Z,5.93
2023-05-08T04:49:00.000Z,5.96
2023-05-08T04:50:00.000Z,6.01
2023-05-08T04:51:00.000Z,6.01
2023-05-08T04:52:00.000Z,6.06
2023-05-08T04:53:00.000Z,6.11
2023-05-08T04:54:00.000Z,6.14
2023-05-08T04:55:00.000Z,6.18
2023-05-08T04:56:00.000Z,6.21
2023-05-08T04:57:00.000Z,6.21
2023-05-08T04:58:00.000Z,6.25
2023-05-08T04:59:01.000Z,6.30
2023-05-08T05:00:01.000Z,6.29
2023-05-08T05:01:01.000Z,6.35
2023-05-08T05:02:01.000Z,6.36
2023-05-08T05:03:01.000Z,6.40
2023-05-08T05:04:01.000Z,6.40
2023-05-08T05:05:01.000Z,6.46
2023-05-08T05:06:01.000Z,6.51
2023-05-08T05:07:01.000Z,6.50
2023-05-08T05:08:01.000Z,6.59
2023-05-08T05:09:01.000Z,6.58
2023-05-08T05:10:01.000Z,6.61
2023-05-08T05:11:01.000Z,6.65
2023-05-08T05:12:01.000Z,6.71
2023-05-08T05:13:01.000Z,6.71
2023-05-08T05:14:01.000Z,6.76
2023-05-08T05:15:01.000Z,6.77
2023-05-08T05:16:01.000Z,6.77
2023-05-08T05:17:01.000Z,6.81
2023-05-08T05:18:01.000Z,6.90
2023-05-08T05:19:01.000Z,6.94
2023-05-08T05:20:01.000Z,6.91
2023-05-08T05:21:01.000Z,6.98
2023-05-08T05:22:01.000Z,7.05
2023-05-08T05:23:01.000Z,7.09
2023-05-08T05:24:01.000Z,7.12
2023-05-08T05:25:01.000Z,7.17
2023-05-08T05:26:01.000Z,7.22
2023-05-08T05:27:01.000Z,7.23
2023-05-08T05:28:01.000Z,7.34
2023-05-08T05:29:01.000Z,7.32
2023-05-08T05:30:01.000Z,7.34
2023-05-08T05:31:01.000Z,7.38
2023-05-08T05:32:01.000Z,7.40
2023-05-08T05:33:02.000Z,7.41
2023-05-08T05:34:02.000Z,7.45
2023-05-08T05:35:02.000Z,7.53
2023-05-08T05:36:02.000Z,7.58
2023-05-08T05:37:02.000Z,7.66
2023-05-08T05:38:02.000Z,7.62
2023-05-08T05:39:02.000Z,7.67
2023-05-08T05:40:02.000Z,7.72
2023-05-08T05:41:02.000Z,7.78
2023-05-08T05:42:02.000Z,7.84
2023-05-08T05:43:02.000Z,7.87
2023-05-08T05:44:02.000Z,7.90
2023-05-08T05:45:02.000Z,7.96
2023-05-08T05:46:02.000Z,7.99
2023-05-08T05:47:02.000Z,8.08
2023-05-08T05:48:02.000Z,8.10
2023-05-08T05:49:02.000Z,8.14
2023-05-08T05:50:02.000Z,8.12
2023-05-08T05:51:02.000Z,8.17
2023-05-08T05:52:02.000Z,8.17
2023-05-08T05:53:02.000Z,8.18
2023-05-08T05:54:02.000Z,8.17
2023-05-08T05:55:02.000Z,8.25
2023-05-08T05:56:02.000Z,8.30
2023-05-08T05:57:02.000Z,8.35
2023-05-08T05:58:02.000Z,8.35
2023-05-08T05:59:02.000Z,8.36
2023-05-08T06:00:02.000Z,8.37
2023-05-08T06:01:02.000Z,8.42
2023-05-08T06:02:02.000Z,8.47
2023-05-08T06:03:02.000Z,8.55
2023-05-08T06:04:02.000Z,8.62
2023-05-08T06:05:02.000Z,8.62
2023-05-08T06:06:02.000Z,8.72
2023-05-08T06:07:02.000Z,8.81
2023-05-08T06:08:02.000Z,8.78
2023-05-08T06:09:02.000Z,8.84
2023-05-08T06:10:02.000Z,8.90
2023-05-08T06:11:02.000Z,8.93
2023-05-08T06:12:02.000Z,8.94
2023-05-08T06:13:02.000Z,9.04
2023-05-08T06:14:02.000Z,9.04
2023-05-08T06:15:02.000Z,8.97
2023-05-08T06:16:02.000Z,9.02
2023-05-08T06:17:02.000Z,9.10
2023-05-08T06:18:02.000Z,9.09
2023-05-08T06:19:02.000Z,9.13
2023-05-08T06:20:02.000Z,9.18
2023-05-08T06:21:02.000Z,9.27
2023-05-08T06:22:02.000Z,9.32
2023-05-08T06:23:02.000Z,9.39
2023-05-08T06:24:02.000Z,9.34
2023-05-08T06:25:02.000Z,9.43
2023-05-08T06:26:02.000Z,9.49
2023-05-08T06:27:02.000Z,9.58
2023-05-08T06:28:02.000Z,9.61
2023-05-08T06:29:02.000Z,9.64
2023-05-08T06:30:02.000Z,9.66
2023-05-08T06:31:02.000Z,9.76
2023-05-08T06:32:02.000Z,9.86
2023-05-08T06:33:02.000Z,9.88
2023-05-08T06:34:02.000Z,9.89
2023-05-08T06:35:02.000Z,9.94
2023-05-08T06:36:02.000Z,9.91
2023-05-08T06:37:02.000Z,9.97
2023-05-08T06:38:02.000Z,10.00
2023-05-08T06:39:02.000Z,10.01
2023-05-08T06:40:02.000Z,10.00
2023-05-08T06:41:02.000Z,10.00
2023-05-08T06:42:02.000Z,10.03
2023-05-08T06:43:02.000Z,10.01
2023-05-08T06:44:02.000Z,9.97
2023-05-08T06:45:02.000Z,9.99
2023-05-08T06:46:02.000Z,9.97
2023-05-08T06:47:02.000Z,9.97
2023-05-08T06:48:02.000Z,10.09
2023-05-08T06:49:02.000Z,10.12
2023-05-08T06:50:02.000Z,10.17
2023-05-08T06:51:02.000Z,10.24
2023-05-08T06:52:02.000Z,10.32
2023-05-08T06:53:02.000Z,10.39
2023-05-08T06:54:02.000Z,10.43
2023-05-08T06:55:02.000Z,10.52
2023-05-08T06:56:02.000Z,10.63
2023-05-08T06:57:02.000Z,10.68
2023-05-08T06:58:02.000Z,10.76
2023-05-08T06:59:02.000Z,10.77
2023-05-08T07:00:02.000Z,10.77
2023-05-08T07:01:02.000Z,10.81
2023-05-08T07:02:02.000Z,10.88
2023-05-08T07:03:02.000Z,10.96
2023-05-08T07:04:02.000Z,10.98
2023-05-08T07:05:02.000Z,10.95
2023-05-08T07:06:02.000Z,10.99
2023-05-08T07:07:02.000Z,11.02
2023-05-08T07:08:02.000Z,11.06
2023-05-08T07:09:02.000Z,11.06
2023-05-08T07:10:02.000Z,11.10
2023-05-08T07:11:02.000Z,11.07
2023-05-08T07:12:02.000Z,11.11
2023-05-08T07:13:02.000Z,11.10
2023-05-08T07:14:02.000Z,11.14
2023-05-08T07:15:02.000Z,11.16
2023-05-08T07:16:02.000Z,11.16
2023-05-08T07:17:02.000Z,11.19
2023-05-08T07:18:02.000Z,11.20
2023-05-08T07:19:02.000Z,11.24
2023-05-08T07:20:02.000Z,11.31
2023-05-08T07:21:02.000Z,11.29
2023-05-08T07:22:02.000Z,11.25
2023-05-08T07:23:02.000Z,11.28
2023-05-08T07:24:02.000Z,11.35
2023-05-08T07:25:02.000Z,11.31
2023-05-08T07:26:02.000Z,11.29
2023-05-08T07:27:02.000Z,11.28
2023-05-08T07:28:02.000Z,11.31
2023-05-08T07:29:02.000Z,11.29
2023-05-08T07:30:02.000Z,11.31
2023-05-08T07:31:02.000Z,11.38
2023-05-08T07:32:02.000Z,11.52
2023-05-08T07:33:02.000Z,11.52
2023-05-08T07:34:02.000Z,11.61
2023-05-08T07:35:02.000Z,11.62
2023-05-08T07:36:02.000Z,11.64
2023-05-08T07:37:02.000Z,11.70
2023-05-08T07:38:02.000Z,11.74
2023-05-08T07:39:02.000Z,11.74
2023-05-08T07:40:02.000Z,11.80
2023-05-08T07:41:02.000Z,11.85
2023-05-08T07:42:02.000Z,11.89
2023-05-08T07:43:02.000Z,11.96
2023-05-08T07:44:01.000Z,11.99
2023-05-08T07:45:01.000Z,12.01
2023-05-08T07:46:01.000Z,12.05
2023-05-08T07:47:01.000Z,12.08
2023-05-08T07:48:01.000Z,12.06
2023-05-08T07:49:01.000Z,12.12
2023-05-08T07:50:01.000Z,12.11
2023-05-08T07:51:01.000Z,12.15
2023-05-08T07:52:01.000Z,12.20
2023-05-08T07:53:01.000Z,12.20
2023-05-08T07:54:01.000Z,12.19
2023-05-08T07:55:01.000Z,12.21
2023-05-08T07:56:01.000Z,12.27
2023-05-08T07:57:01.000Z,12.34
2023-05-08T07:58:01.000Z,12.29
2023-05-08T07:59:01.000Z,12.31
2023-05-08T08:00:01.000Z,12.34
2023-05-08T08:01:01.000Z,12.38
2023-05-08T08:02:01.000Z,12.46
2023-05-08T08:03:01.000Z,12.51
2023-05-08T08:04:01.000Z,12.59
2023-05-08T08:05:01.000Z,12.66
2023-05-08T08:06:01.000Z,12.74
2023-05-08T08:07:01.000Z,12.75
2023-05-08T08:08:01.000Z,12.70
2023-05-08T08:09:01.000Z,12.71
2023-05-08T08:10:01.000Z,12.66
2023-05-08T08:11:01.000Z,12.64
2023-05-08T08:12:01.000Z,12.69
2023-05-08T08:13:01.000Z,12.75
2023-05-08T08:14:01.000Z,12.78
2023-05-08T08:15:01.000Z,12.84
2023-05-08T08:16:01.000Z,12.93
2023-05-08T08:17:01.000Z,12.93
2023-05-08T08:18:01.000Z,12.95
2023-05-08T08:19:01.000Z,13.00
2023-05-08T08:20:01.000Z,12.99
2023-05-08T08:21:01.000Z,12.99
2023-05-08T08:22:01.000Z,12.97
2023-05-08T08:23:01.000Z,13.03
2023-05-08T08:24:00.000Z,13.00
2023-05-08T08:25:00.000Z,12.96
2023-05-08T08:26:00.000Z,12.95
2023-05-08T08:27:00.000Z,12.99
2023-05-08T08:28:00.000Z,13.04
2023-05-08T08:29:00.000Z,13.06
2023-05-08T08:30:00.000Z,13.22
2023-05-08T08:31:00.000Z,13.32
2023-05-08T08:32:00.000Z,13.36
2023-05-08T08:33:00.000Z,13.32
2023-05-08T08:34:00.000Z,13.29
2023-05-08T08:35:00.000Z,13.25
2023-05-08T08:36:00.000Z,13.25
2023-05-08T08:37:00.000Z,13.25
2023-05-08T08:38:00.000Z,13.30
2023-05-08T08:39:00.000Z,13.38
2023-05-08T08:40:00.000Z,13.43
2023-05-08T08:41:00.000Z,13.40
2023-05-08T08:42:00.000Z,13.49
2023-05-08T08:43:00.000Z,13.58
2023-05-08T08:44:00.000Z,13.56
2023-05-08T08:45:00.000Z,13.56
2023-05-08T08:46:00.000Z,13.54
2023-05-08T08:47:00.000Z,13.49
2023-05-08T08:48:00.000Z,13.46
2023-05-08T08:49:00.000Z,13.44
2023-05-08T08:50:00.000Z,13.46
2023-05-08T08:51:00.000Z,13.37
2023-05-08T08:52:00.000Z,13.32
2023-05-08T08:52:59.000Z,13.40
2023-05-08T08:53:59.000Z,13.46
2023-05-08T08:54:59.000Z,13.54
2023-05-08T08:55:59.000Z,13.59
2023-05-08T08:56:59.000Z,13.62
2023-05-08T08:57:59.000Z,13.73
2023-05-08T08:58:59.000Z,13.76
2023-05-08T08:59:59.000Z,13.74
2023-05-08T09:00:59.000Z,13.70
2023-05-08T09:01:59.000Z,13.65
2023-05-08T09:02:59.000Z,13.63
2023-05-08T09:03:59.000Z,13.59
2023-05-08T09:04:59.000Z,13.54
2023-05-08T09:05:59.000Z,13.52
2023-05-08T09:06:59.000Z,13.51
2023-05-08T09:07:59.000Z,13.55
2023-05-08T09:08:59.000Z,13.54
2023-05-08T09:09:59.000Z,13.54
2023-05-08T09:10:59.000Z,13.59
2023-05-08T09:11:59.000Z,13.71
2023-05-08T09:12:59.000Z,13.76
2023-05-08T09:13:59.000Z,13.77
2023-05-08T09:14:59.000Z,13.76
2023-05-08T09:15:58.000Z,13.81
2023-05-08T09:16:58.000Z,13.84
2023-05-08T09:17:58.000Z,13.94
2023-05-08T09:18:58.000Z,13.99
2023-05-08T09:19:58.000Z,14.06
2023-05-08T09:20:58.000Z,14.06
2023-05-08T09:21:58.000Z,14.02
2023-05-08T09:22:58.000Z,14.04
2023-05-08T09:23:58.000Z,14.02
2023-05-08T09:24:58.000Z,14.02
2023-05-08T09:25:58.000Z,13.99
2023-05-08T09:26:58.000Z,13.92
2023-05-08T09:27:58.000Z,13.98
2023-05-08T09:28:58.000Z,13.95
2023-05-08T09:29:58.000Z,14.01
2023-05-08T09:30:58.000Z,13.98
2023-05-08T09:31:58.000Z,14.02
2023-05-08T09:32:58.000Z,14.07
2023-05-08T09:33:58.000Z,14.09
2023-05-08T09:34:58.000Z,14.14
2023-05-08T09:35:58.000Z,14.21
2023-05-08T09:36:57.000Z,14.31
2023-05-08T09:37:57.000Z,14.38
2023-05-08T09:38:57.000Z,14.49
2023-05-08T09:39:57.000Z,14.53
2023-05-08T09:40:57.000Z,14.50
2023-05-08T09:41:57.000Z,14.42
2023-05-08T09:42:57.000Z,14.42
2023-05-08T09:43:57.000Z,14.38
2023-05-08T09:44:57.000Z,14.43
2023-05-08T09:45:57.000Z,14.42
2023-05-08T09:46:57.000Z,14.46
2023-05-08T09:47:57.000Z,14.50
2023-05-08T09:48:57.000Z,14.49
2023-05-08T09:49:57.000Z,14.54
2023-05-08T09:50:57.000Z,14.61
2023-05-08T09:51:57.000Z,14.68
2023-05-08T09:52:57.000Z,14.65
2023-05-08T09:53:57.000Z,14.68
2023-05-08T09:54:57.000Z,14.68
2023-05-08T09:55:57.000Z,14.75
2023-05-08T09:56:57.000Z,14.81
2023-05-08T09:57:56.000Z,14.84
2023-05-08T09:58:56.000Z,14.91
2023-05-08T09:59:56.000Z,14.95
2023-05-08T10:00:56.000Z,15.05
2023-05-08T10:01:56.000Z,15.13
2023-05-08T10:02:56.000Z,15.17
2023-05-08T10:03:56.000Z,15.26
2023-05-08T10:04:56.000Z,15.24
2023-05-08T10:05:56.000Z,15.28
2023-05-08T10:06:56.000Z,15.31
2023-05-08T10:07:56.000Z,15.27
2023-05-08T10:08:56.000Z,15.24
2023-05-08T10:09:56.000Z,15.24
2023-05-08T10:10:56.000Z,15.30
2023-05-08T10:11:56.000Z,15.30
2023-05-08T10:12:56.000Z,15.24
2023-05-08T10:13:56.000Z,15.26
2023-05-08T10:14:56.000Z,15.23
2023-05-08T10:15:56.000Z,15.21
2023-05-08T10:16:55.000Z,15.23
2023-05-08T10:17:55.000Z,15.20
2023-05-08T10:18:55.000Z,15.21
2023-05-08T10:19:55.000Z,15.26
2023-05-08T10:20:55.000Z,15.27
2023-05-08T10:21:55.000Z,15.28
2023-05-08T10:22:55.000Z,15.33
2023-05-08T10:23:55.000Z,15.35
2023-05-08T10:24:55.000Z,15.38
2023-05-08T10:25:55.000Z,15.35
2023-05-08T10:26:55.000Z,15.27
2023-05-08T10:27:55.000Z,15.28
2023-05-08T10:28:55.000Z,15.35
2023-05-08T10:29:55.000Z,15.33
2023-05-08T10:30:55.000Z,15.39
2023-05-08T10:31:55.000Z,15.54
2023-05-08T10:32:55.000Z,15.63
2023-05-08T10:33:55.000Z,15.70
2023-05-08T10:34:54.000Z,15.70
2023-05-08T10:35:54.000Z,15.68
2023-05-08T10:36:54.000Z,15.75
2023-05-08T10:37:54.000Z,15.78
2023-05-08T10:38:54.000Z,15.84
2023-05-08T10:39:54.000Z,15.89
2023-05-08T10:40:54.000Z,15.94
2023-05-08T10:41:54.000Z,16.01
2023-05-08T10:42:54.000Z,15.99
2023-05-08T10:43:54.000Z,15.97
2023-05-08T10:44:54.000Z,15.94
2023-05-08T10:45:54.000Z,15.94
2023-05-08T10:46:54.000Z,15.94
2023-05-08T10:47:54.000Z,15.92
2023-05-08T10:48:54.000Z,15.88
2023-05-08T10:49:54.000Z,15.99
2023-05-08T10:50:54.000Z,16.12
2023-05-08T10:51:53.000Z,16.03
2023-05-08T10:52:53.000Z,16.07
2023-05-08T10:53:53.000Z,16.06
2023-05-08T10:54:53.000Z,16.12
2023-05-08T10:55:53.000Z,16.22
2023-05-08T10:56:53.000Z,16.14
2023-05-08T10:57:53.000Z,16.11
2023-05-08T10:58:53.000Z,16.07
2023-05-08T10:59:53.000Z,16.00
2023-05-08T11:00:53.000Z,16.07
2023-05-08T11:01:53.000Z,16.15
2023-05-08T11:02:53.000Z,16.20
2023-05-08T11:03:53.000Z,16.27
2023-05-08T11:04:53.000Z,16.37
2023-05-08T11:05:53.000Z,16.41
2023-05-08T11:06:53.000Z,16.44
2023-05-08T11:07:53.000Z,16.44
2023-05-08T11:08:53.000Z,16.49
2023-05-08T11:09:52.000Z,16.48
2023-05-08T11:10:52.000Z,16.53
2023-05-08T11:11:52.000Z,16.58
2023-05-08T11:12:52.000Z,16.63
2023-05-08T11:13:52.000Z,16.59
2023-05-08T11:14:52.000Z,16.56
2023-05-08T11:15:52.000Z,16.53
2023-05-08T11:16:52.000Z,16.59
2023-05-08T11:17:52.000Z,16.68
2023-05-08T11:18:52.000Z,16.71
2023-05-08T11:19:52.000Z,16.85
2023-05-08T11:20:52.000Z,16.89
2023-05-08T11:21:52.000Z,16.98
2023-05-08T11:22:52.000Z,16.92
2023-05-08T11:23:52.000Z,16.83
2023-05-08T11:24:52.000Z,16.81
2023-05-08T11:25:51.000Z,16.78
2023-05-08T11:26:51.000Z,16.86
2023-05-08T11:27:51.000Z,16.93
2023-05-08T11:28:51.000Z,16.99
2023-05-08T11:29:51.000Z,17.07
2023-05-08T11:30:51.000Z,17.13
2023-05-08T11:31:51.000Z,17.20
2023-05-08T11:32:51.000Z,17.26
2023-05-08T11:33:51.000Z,17.28
2023-05-08T11:34:51.000Z,17.23
2023-05-08T11:35:51.000Z,17.13
2023-05-08T11:36:51.000Z,17.11
2023-05-08T11:37:51.000Z,17.07
2023-05-08T11:38:51.000Z,17.13
2023-05-08T11:39:51.000Z,17.08
2023-05-08T11:40:51.000Z,17.13
2023-05-08T11:41:50.000Z,17.07
2023-05-08T11:42:50.000Z,17.13
2023-05-08T11:43:50.000Z,17.20
2023-05-08T11:44:50.000Z,17.17
2023-05-08T11:45:50.000Z,17.15
2023-05-08T11:46:50.000Z,17.14
2023-05-08T11:47:50.000Z,17.08
2023-05-08T11:48:50.000Z,17.10
2023-05-08T11:49:50.000Z,17.10
2023-05-08T11:50:50.000Z,17.14
2023-05-08T11:51:50.000Z,17.23
2023-05-08T11:52:50.000Z,17.33
2023-05-08T11:53:50.000Z,17.41
2023-05-08T11:54:50.000Z,17.43
2023-05-08T11:55:50.000Z,17.43
2023-05-08T11:56:49.000Z,17.43
2023-05-08T11:57:49.000Z,17.46
2023-05-08T11:58:49.000Z,17.51
2023-05-08T11:59:49.000Z,17.55
2023-05-08T12:00:49.000Z,17.64
2023-05-08T12:01:49.000Z,17.74
2023-05-08T12:02:49.000Z,17.85
2023-05-08T12:03:49.000Z,17.89
2023-05-08T12:04:49.000Z,17.92
2023-05-08T12:05:49.000Z,17.94
2023-05-08T12:06:49.000Z,18.00
2023-05-08T12:07:49.000Z,17.92
2023-05-08T12:08:49.000Z,17.88
2023-05-08T12:09:49.000Z,17.79
2023-05-08T12:10:48.000Z,17.71
2023-05-08T12:11:48.000Z,17.64
2023-05-08T12:12:48.000Z,17.63
2023-05-08T12:13:48.000Z,17.63
2023-05-08T12:14:48.000Z,17.66
2023-05-08T12:15:48.000Z,17.62
2023-05-08T12:16:48.000Z,17.53
2023-05-08T12:17:48.000Z,17.54
2023-05-08T12:18:48.000Z,17.63
2023-05-08T12:19:48.000Z,17.71
2023-05-08T12:20:48.000Z,17.79
2023-05-08T12:21:48.000Z,17.88
2023-05-08T12:22:48.000Z,17.94
2023-05-08T12:23:48.000Z,17.97
2023-05-08T12:24:47.000Z,18.02
2023-05-08T12:25:47.000Z,17.97
2023-05-08T12:26:47.000Z,17.97
2023-05-08T12:27:47.000Z,17.95
2023-05-08T12:28:47.000Z,18.06
2023-05-08T12:29:47.000Z,18.12
2023-05-08T12:30:47.000Z,18.15
2023-05-08T12:31:47.000Z,18.25
2023-05-08T12:32:47.000Z,18.29
2023-05-08T12:33:47.000Z,18.36
2023-05-08T12:34:47.000Z,18.37
2023-05-08T12:35:47.000Z,18.39
2023-05-08T12:36:47.000Z,18.42
2023-05-08T12:37:46.000Z,18.42
2023-05-08T12:38:46.000Z,18.46
2023-05-08T12:39:46.000Z,18.52
2023-05-08T12:40:46.000Z,18.64
2023-05-08T12:41:46.000Z,18.70
2023-05-08T12:42:46.000Z,18.79
2023-05-08T12:43:46.000Z,18.79
2023-05-08T12:44:46.000Z,18.74
2023-05-08T12:45:46.000Z,18.70
2023-05-08T12:46:46.000Z,18.76
2023-05-08T12:47:46.000Z,18.82
2023-05-08T12:48:46.000Z,18.83
2023-05-08T12:49:45.000Z,18.84
2023-05-08T12:50:45.000Z,18.94
2023-05-08T12:51:45.000Z,18.95
2023-05-08T12:52:45.000Z,18.97
2023-05-08T12:53:45.000Z,18.99
2023-05-08T12:54:45.000Z,19.10
2023-05-08T12:55:45.000Z,19.13
2023-05-08T12:56:45.000Z,19.23
2023-05-08T12:57:45.000Z,19.29
2023-05-08T12:58:45.000Z,19.32
2023-05-08T12:59:45.000Z,19.29
2023-05-08T13:00:45.000Z,19.25
2023-05-08T13:01:44.000Z,19.29
2023-05-08T13:02:44.000Z,19.31
2023-05-08T13:03:44.000Z,19.39
2023-05-08T13:04:44.000Z,19.42
2023-05-08T13:05:44.000Z,19.46